Terminal Aerodrome Forecast
Issued by NWS Detroit/Pontiac, MI

Home | Current Version | Previous Version | Text Only | Print | Product List | Glossary On
Versions: 1 2 3 4 5 6 7 8 9 10 11 12 13 14 15 16 17 18 19 20 21 22 23 24
074
FTUS43 KDTX 300520
TAFDTW
TAF
KDTW 300520Z 3006/3112 04007KT P6SM VCSH SCT025 BKN060 BKN120
      TEMPO 3008/3012 5SM BR BKN025
     FM301400 05008KT P6SM SCT040 BKN060 BKN100
     FM302000 08009KT P6SM BKN060 BKN120
     FM310200 04006KT P6SM SCT060 SCT120=

USA.gov is the U.S. government's official web portal to all federal, state and local government web resources and services.